Amsterdam, Missouri
Current Conditions -  °F | °C
As of 4:53 PM on Saturday 25 Oct 2014 (Local Time) from KOJC Reporting Station
Clear Clear  
Wind Chill: 79°   Ceiling: Unl
Heat Index: 80°   Visibility: 10mi
Dew Point: 58°   Wind: 6mph
Humidity: 48%   Direction: 160°SSE
Pressure: 30.02"   Gusts: NA
Location:  38.35°N, 94.59°W
Report Text: KOJC 252153Z 16005KT 10SM CLR 26/14 A3002 RMK AO2 SLP156 T02610144
Loading
Personal Weather Stations






























Interactive Weather Map
Tropical Storm Tracking
New forecast layout! Learn more

10-Day Weather Forecast

Advertisements
Track Severe Weather on mobile